sensor_id;sensor_type;location;lat;lon;timestamp;temperature;humidity
34877;DHT22;21086;44.780;17.194;2024-03-29T00:00:59;18.40;93.90
34877;DHT22;21086;44.780;17.194;2024-03-29T00:03:27;18.40;93.50
34877;DHT22;21086;44.780;17.194;2024-03-29T00:05:53;18.30;93.00
34877;DHT22;21086;44.780;17.194;2024-03-29T00:08:19;18.30;92.80
34877;DHT22;21086;44.780;17.194;2024-03-29T00:10:47;18.30;93.00
34877;DHT22;21086;44.780;17.194;2024-03-29T00:13:13;18.30;92.70
34877;DHT22;21086;44.780;17.194;2024-03-29T00:15:39;18.30;92.50
34877;DHT22;21086;44.780;17.194;2024-03-29T00:18:06;18.40;92.60
34877;DHT22;21086;44.780;17.194;2024-03-29T00:20:32;18.30;92.00
34877;DHT22;21086;44.780;17.194;2024-03-29T00:22:58;18.40;92.00
34877;DHT22;21086;44.780;17.194;2024-03-29T00:25:24;18.30;91.70
34877;DHT22;21086;44.780;17.194;2024-03-29T00:27:50;18.30;91.30
34877;DHT22;21086;44.780;17.194;2024-03-29T00:30:16;18.30;91.60
34877;DHT22;21086;44.780;17.194;2024-03-29T00:32:42;18.20;91.40
34877;DHT22;21086;44.780;17.194;2024-03-29T00:35:08;18.20;90.90
34877;DHT22;21086;44.780;17.194;2024-03-29T00:37:34;18.30;91.00
34877;DHT22;21086;44.780;17.194;2024-03-29T00:40:00;18.20;91.00
34877;DHT22;21086;44.780;17.194;2024-03-29T00:42:26;18.30;91.00
34877;DHT22;21086;44.780;17.194;2024-03-29T00:44:52;18.30;91.20
34877;DHT22;21086;44.780;17.194;2024-03-29T00:47:18;18.30;90.90
34877;DHT22;21086;44.780;17.194;2024-03-29T00:49:44;18.40;91.00
34877;DHT22;21086;44.780;17.194;2024-03-29T00:52:10;18.30;90.70
34877;DHT22;21086;44.780;17.194;2024-03-29T00:54:36;18.40;90.40
34877;DHT22;21086;44.780;17.194;2024-03-29T00:57:02;18.40;90.40
34877;DHT22;21086;44.780;17.194;2024-03-29T00:59:28;18.40;90.30
34877;DHT22;21086;44.780;17.194;2024-03-29T01:01:55;18.50;90.70
34877;DHT22;21086;44.780;17.194;2024-03-29T01:04:21;18.50;90.30
34877;DHT22;21086;44.780;17.194;2024-03-29T01:06:47;18.50;91.00
34877;DHT22;21086;44.780;17.194;2024-03-29T01:09:13;18.60;89.90
34877;DHT22;21086;44.780;17.194;2024-03-29T01:11:39;18.60;89.90
34877;DHT22;21086;44.780;17.194;2024-03-29T01:14:06;18.60;90.10
34877;DHT22;21086;44.780;17.194;2024-03-29T01:16:32;18.60;89.50
34877;DHT22;21086;44.780;17.194;2024-03-29T01:18:59;18.60;88.40
34877;DHT22;21086;44.780;17.194;2024-03-29T01:21:28;18.60;88.00
34877;DHT22;21086;44.780;17.194;2024-03-29T01:23:54;18.50;87.90
34877;DHT22;21086;44.780;17.194;2024-03-29T01:26:20;18.50;87.70
34877;DHT22;21086;44.780;17.194;2024-03-29T01:28:46;18.60;87.60
34877;DHT22;21086;44.780;17.194;2024-03-29T01:31:12;18.50;87.20
34877;DHT22;21086;44.780;17.194;2024-03-29T01:33:38;18.50;86.80
34877;DHT22;21086;44.780;17.194;2024-03-29T01:36:10;18.50;86.90
34877;DHT22;21086;44.780;17.194;2024-03-29T01:38:36;18.50;87.00
34877;DHT22;21086;44.780;17.194;2024-03-29T01:41:02;18.50;87.10
34877;DHT22;21086;44.780;17.194;2024-03-29T01:43:28;18.50;87.40
34877;DHT22;21086;44.780;17.194;2024-03-29T01:45:55;18.40;86.60
34877;DHT22;21086;44.780;17.194;2024-03-29T01:48:22;18.30;85.20
34877;DHT22;21086;44.780;17.194;2024-03-29T01:50:50;18.30;85.20
34877;DHT22;21086;44.780;17.194;2024-03-29T01:53:18;18.30;86.30
34877;DHT22;21086;44.780;17.194;2024-03-29T01:55:44;18.10;84.80
34877;DHT22;21086;44.780;17.194;2024-03-29T01:58:11;18.10;84.50
34877;DHT22;21086;44.780;17.194;2024-03-29T02:00:54;18.10;85.50
34877;DHT22;21086;44.780;17.194;2024-03-29T02:03:20;18.00;85.20
34877;DHT22;21086;44.780;17.194;2024-03-29T02:05:48;18.00;85.20
34877;DHT22;21086;44.780;17.194;2024-03-29T02:08:14;18.00;85.60
34877;DHT22;21086;44.780;17.194;2024-03-29T02:10:42;17.90;85.60
34877;DHT22;21086;44.780;17.194;2024-03-29T02:13:08;17.90;85.50
34877;DHT22;21086;44.780;17.194;2024-03-29T02:15:34;17.90;86.00
34877;DHT22;21086;44.780;17.194;2024-03-29T02:18:00;17.70;85.40
34877;DHT22;21086;44.780;17.194;2024-03-29T02:20:27;17.70;85.10
34877;DHT22;21086;44.780;17.194;2024-03-29T02:23:32;17.70;85.60
34877;DHT22;21086;44.780;17.194;2024-03-29T02:25:58;17.60;84.70
34877;DHT22;21086;44.780;17.194;2024-03-29T02:28:24;17.50;85.40
34877;DHT22;21086;44.780;17.194;2024-03-29T02:30:51;17.40;85.60
34877;DHT22;21086;44.780;17.194;2024-03-29T02:33:17;17.40;86.00
34877;DHT22;21086;44.780;17.194;2024-03-29T02:35:43;17.30;86.00
34877;DHT22;21086;44.780;17.194;2024-03-29T02:38:09;17.20;85.30
34877;DHT22;21086;44.780;17.194;2024-03-29T02:40:35;17.20;86.30
34877;DHT22;21086;44.780;17.194;2024-03-29T02:43:01;17.10;86.00
34877;DHT22;21086;44.780;17.194;2024-03-29T02:45:27;16.90;85.60
34877;DHT22;21086;44.780;17.194;2024-03-29T02:47:53;16.80;86.00
34877;DHT22;21086;44.780;17.194;2024-03-29T02:50:19;16.90;87.30
34877;DHT22;21086;44.780;17.194;2024-03-29T02:52:45;16.90;88.30
34877;DHT22;21086;44.780;17.194;2024-03-29T02:55:11;16.80;89.10
34877;DHT22;21086;44.780;17.194;2024-03-29T02:57:38;16.90;97.10
34877;DHT22;21086;44.780;17.194;2024-03-29T03:00:05;16.80;90.20
34877;DHT22;21086;44.780;17.194;2024-03-29T03:02:31;16.60;90.30
34877;DHT22;21086;44.780;17.194;2024-03-29T03:04:57;16.70;91.20
34877;DHT22;21086;44.780;17.194;2024-03-29T03:07:25;16.70;91.40
34877;DHT22;21086;44.780;17.194;2024-03-29T03:10:09;16.60;91.50
34877;DHT22;21086;44.780;17.194;2024-03-29T03:12:54;16.60;92.50
34877;DHT22;21086;44.780;17.194;2024-03-29T03:15:20;16.60;93.00
34877;DHT22;21086;44.780;17.194;2024-03-29T03:17:46;16.60;93.50
34877;DHT22;21086;44.780;17.194;2024-03-29T03:20:12;16.50;93.10
34877;DHT22;21086;44.780;17.194;2024-03-29T03:22:39;16.40;93.40
34877;DHT22;21086;44.780;17.194;2024-03-29T03:25:05;16.40;93.90
34877;DHT22;21086;44.780;17.194;2024-03-29T03:27:31;16.30;93.90
34877;DHT22;21086;44.780;17.194;2024-03-29T03:29:57;16.10;93.80
34877;DHT22;21086;44.780;17.194;2024-03-29T03:32:23;16.10;94.70
34877;DHT22;21086;44.780;17.194;2024-03-29T03:34:49;16.20;96.00
34877;DHT22;21086;44.780;17.194;2024-03-29T03:37:15;16.20;95.60
34877;DHT22;21086;44.780;17.194;2024-03-29T03:39:41;16.10;95.80
34877;DHT22;21086;44.780;17.194;2024-03-29T03:42:07;16.00;95.80
34877;DHT22;21086;44.780;17.194;2024-03-29T03:44:33;15.90;96.40
34877;DHT22;21086;44.780;17.194;2024-03-29T03:46:59;15.90;96.60
34877;DHT22;21086;44.780;17.194;2024-03-29T03:49:25;15.60;96.20
34877;DHT22;21086;44.780;17.194;2024-03-29T03:51:51;15.50;96.60
34877;DHT22;21086;44.780;17.194;2024-03-29T03:54:17;15.40;96.90
34877;DHT22;21086;44.780;17.194;2024-03-29T03:56:43;15.40;97.40
34877;DHT22;21086;44.780;17.194;2024-03-29T03:59:09;15.30;97.90
34877;DHT22;21086;44.780;17.194;2024-03-29T04:01:35;15.30;98.40
34877;DHT22;21086;44.780;17.194;2024-03-29T04:04:01;15.10;98.40
34877;DHT22;21086;44.780;17.194;2024-03-29T04:06:27;15.10;98.90
34877;DHT22;21086;44.780;17.194;2024-03-29T04:08:53;15.00;99.50
34877;DHT22;21086;44.780;17.194;2024-03-29T04:11:19;15.00;99.90
34877;DHT22;21086;44.780;17.194;2024-03-29T04:13:45;14.90;99.90
34877;DHT22;21086;44.780;17.194;2024-03-29T04:16:11;14.90;99.90
34877;DHT22;21086;44.780;17.194;2024-03-29T04:18:37;14.90;99.90
34877;DHT22;21086;44.780;17.194;2024-03-29T04:21:04;14.90;99.90
34877;DHT22;21086;44.780;17.194;2024-03-29T04:23:30;14.80;99.90
34877;DHT22;21086;44.780;17.194;2024-03-29T04:25:58;14.80;99.90
34877;DHT22;21086;44.780;17.194;2024-03-29T04:28:25;14.80;99.90
34877;DHT22;21086;44.780;17.194;2024-03-29T04:33:17;14.80;99.90
34877;DHT22;21086;44.780;17.194;2024-03-29T04:38:23;14.70;99.90
34877;DHT22;21086;44.780;17.194;2024-03-29T04:40:52;14.70;99.90
34877;DHT22;21086;44.780;17.194;2024-03-29T04:43:18;14.70;99.90
34877;DHT22;21086;44.780;17.194;2024-03-29T04:45:45;15.00;99.90
34877;DHT22;21086;44.780;17.194;2024-03-29T04:48:11;15.00;99.90
34877;DHT22;21086;44.780;17.194;2024-03-29T04:50:38;14.90;99.90
34877;DHT22;21086;44.780;17.194;2024-03-29T04:53:04;14.90;99.90
34877;DHT22;21086;44.780;17.194;2024-03-29T04:55:30;14.80;99.90
34877;DHT22;21086;44.780;17.194;2024-03-29T04:57:56;14.90;99.90
34877;DHT22;21086;44.780;17.194;2024-03-29T05:00:22;15.00;99.90
34877;DHT22;21086;44.780;17.194;2024-03-29T05:02:48;15.10;99.90
34877;DHT22;21086;44.780;17.194;2024-03-29T05:05:14;15.20;99.90
34877;DHT22;21086;44.780;17.194;2024-03-29T05:07:40;15.40;99.90
34877;DHT22;21086;44.780;17.194;2024-03-29T05:10:07;15.50;99.90
34877;DHT22;21086;44.780;17.194;2024-03-29T05:12:33;15.70;99.90
34877;DHT22;21086;44.780;17.194;2024-03-29T05:14:59;15.80;99.90
34877;DHT22;21086;44.780;17.194;2024-03-29T05:17:25;16.00;99.90
34877;DHT22;21086;44.780;17.194;2024-03-29T05:19:54;16.20;99.90
34877;DHT22;21086;44.780;17.194;2024-03-29T05:22:20;16.30;99.90
34877;DHT22;21086;44.780;17.194;2024-03-29T05:24:46;16.40;99.90
34877;DHT22;21086;44.780;17.194;2024-03-29T05:27:13;16.40;99.90
34877;DHT22;21086;44.780;17.194;2024-03-29T05:29:39;16.50;99.90
34877;DHT22;21086;44.780;17.194;2024-03-29T05:32:07;16.60;99.90
34877;DHT22;21086;44.780;17.194;2024-03-29T05:34:33;16.70;99.90
34877;DHT22;21086;44.780;17.194;2024-03-29T05:36:59;16.80;99.90
34877;DHT22;21086;44.780;17.194;2024-03-29T05:39:25;17.00;99.90
34877;DHT22;21086;44.780;17.194;2024-03-29T05:41:51;17.10;99.90
34877;DHT22;21086;44.780;17.194;2024-03-29T05:44:17;17.10;99.90
34877;DHT22;21086;44.780;17.194;2024-03-29T05:46:43;17.20;99.90
34877;DHT22;21086;44.780;17.194;2024-03-29T05:49:09;17.30;99.90
34877;DHT22;21086;44.780;17.194;2024-03-29T05:51:35;17.40;99.90
34877;DHT22;21086;44.780;17.194;2024-03-29T05:54:01;17.50;99.90
34877;DHT22;21086;44.780;17.194;2024-03-29T05:56:29;17.60;99.90
34877;DHT22;21086;44.780;17.194;2024-03-29T05:58:55;17.60;99.90
34877;DHT22;21086;44.780;17.194;2024-03-29T06:01:22;17.70;99.90
34877;DHT22;21086;44.780;17.194;2024-03-29T06:03:50;17.80;99.90
34877;DHT22;21086;44.780;17.194;2024-03-29T06:06:21;17.80;99.90
34877;DHT22;21086;44.780;17.194;2024-03-29T06:08:51;18.00;99.90
34877;DHT22;21086;44.780;17.194;2024-03-29T06:11:17;18.00;99.90
34877;DHT22;21086;44.780;17.194;2024-03-29T06:13:43;18.10;99.90
34877;DHT22;21086;44.780;17.194;2024-03-29T06:16:35;18.10;99.90
34877;DHT22;21086;44.780;17.194;2024-03-29T06:19:19;18.10;99.90
34877;DHT22;21086;44.780;17.194;2024-03-29T06:21:45;18.20;99.90
34877;DHT22;21086;44.780;17.194;2024-03-29T06:24:12;18.20;99.90
34877;DHT22;21086;44.780;17.194;2024-03-29T06:26:38;18.30;99.90
34877;DHT22;21086;44.780;17.194;2024-03-29T06:29:04;18.40;99.90
34877;DHT22;21086;44.780;17.194;2024-03-29T06:31:30;18.40;99.90
34877;DHT22;21086;44.780;17.194;2024-03-29T06:34:00;18.60;99.90
34877;DHT22;21086;44.780;17.194;2024-03-29T06:36:26;18.60;99.90
34877;DHT22;21086;44.780;17.194;2024-03-29T06:38:55;18.70;99.90
34877;DHT22;21086;44.780;17.194;2024-03-29T06:41:23;18.70;99.90
34877;DHT22;21086;44.780;17.194;2024-03-29T06:43:49;18.90;99.90
34877;DHT22;21086;44.780;17.194;2024-03-29T06:46:15;18.90;99.90
34877;DHT22;21086;44.780;17.194;2024-03-29T06:48:41;19.10;99.90
34877;DHT22;21086;44.780;17.194;2024-03-29T06:51:07;19.10;99.90
34877;DHT22;21086;44.780;17.194;2024-03-29T06:53:33;19.20;99.90
34877;DHT22;21086;44.780;17.194;2024-03-29T06:56:02;19.20;99.90
34877;DHT22;21086;44.780;17.194;2024-03-29T06:58:28;19.20;99.90
34877;DHT22;21086;44.780;17.194;2024-03-29T07:00:54;19.30;99.90
34877;DHT22;21086;44.780;17.194;2024-03-29T07:03:20;19.30;99.90
34877;DHT22;21086;44.780;17.194;2024-03-29T07:05:47;19.40;99.90
34877;DHT22;21086;44.780;17.194;2024-03-29T07:08:13;19.50;99.90
34877;DHT22;21086;44.780;17.194;2024-03-29T07:10:39;19.50;99.90
34877;DHT22;21086;44.780;17.194;2024-03-29T07:13:07;19.60;99.90
34877;DHT22;21086;44.780;17.194;2024-03-29T07:15:33;19.70;99.90
34877;DHT22;21086;44.780;17.194;2024-03-29T07:18:02;19.80;99.90
34877;DHT22;21086;44.780;17.194;2024-03-29T07:20:29;19.90;99.90
34877;DHT22;21086;44.780;17.194;2024-03-29T07:22:55;20.30;99.90
34877;DHT22;21086;44.780;17.194;2024-03-29T07:25:21;20.10;99.90
34877;DHT22;21086;44.780;17.194;2024-03-29T07:27:48;20.20;99.90
34877;DHT22;21086;44.780;17.194;2024-03-29T07:30:15;20.20;99.90
34877;DHT22;21086;44.780;17.194;2024-03-29T07:32:41;20.30;99.90
34877;DHT22;21086;44.780;17.194;2024-03-29T07:35:08;20.30;99.90
34877;DHT22;21086;44.780;17.194;2024-03-29T07:37:34;20.50;99.90
34877;DHT22;21086;44.780;17.194;2024-03-29T07:40:00;20.40;99.90
34877;DHT22;21086;44.780;17.194;2024-03-29T07:42:26;20.60;99.90
34877;DHT22;21086;44.780;17.194;2024-03-29T07:44:52;20.70;99.90
34877;DHT22;21086;44.780;17.194;2024-03-29T07:47:18;20.80;99.90
34877;DHT22;21086;44.780;17.194;2024-03-29T07:49:44;21.10;99.90
34877;DHT22;21086;44.780;17.194;2024-03-29T07:52:11;21.20;99.90
34877;DHT22;21086;44.780;17.194;2024-03-29T07:54:38;21.10;99.90
34877;DHT22;21086;44.780;17.194;2024-03-29T07:57:04;21.30;99.90
34877;DHT22;21086;44.780;17.194;2024-03-29T07:59:31;21.50;99.90
34877;DHT22;21086;44.780;17.194;2024-03-29T08:01:57;21.70;99.90
34877;DHT22;21086;44.780;17.194;2024-03-29T08:04:23;21.90;99.90
34877;DHT22;21086;44.780;17.194;2024-03-29T08:06:52;21.90;99.30
34877;DHT22;21086;44.780;17.194;2024-03-29T08:09:18;21.90;98.80
34877;DHT22;21086;44.780;17.194;2024-03-29T08:11:44;22.00;98.20
34877;DHT22;21086;44.780;17.194;2024-03-29T08:14:10;22.10;97.50
34877;DHT22;21086;44.780;17.194;2024-03-29T08:16:36;22.00;96.50
34877;DHT22;21086;44.780;17.194;2024-03-29T08:19:02;22.10;96.40
34877;DHT22;21086;44.780;17.194;2024-03-29T08:21:28;22.10;95.70
34877;DHT22;21086;44.780;17.194;2024-03-29T08:23:55;22.00;94.70
34877;DHT22;21086;44.780;17.194;2024-03-29T08:26:22;22.00;94.40
34877;DHT22;21086;44.780;17.194;2024-03-29T08:28:48;22.00;93.60
34877;DHT22;21086;44.780;17.194;2024-03-29T08:31:15;22.10;93.30
34877;DHT22;21086;44.780;17.194;2024-03-29T08:33:41;22.20;93.20
34877;DHT22;21086;44.780;17.194;2024-03-29T08:36:09;22.30;93.00
34877;DHT22;21086;44.780;17.194;2024-03-29T08:38:39;22.20;91.60
34877;DHT22;21086;44.780;17.194;2024-03-29T08:41:09;22.00;90.60
34877;DHT22;21086;44.780;17.194;2024-03-29T08:43:35;21.80;89.20
34877;DHT22;21086;44.780;17.194;2024-03-29T08:46:01;21.70;88.70
34877;DHT22;21086;44.780;17.194;2024-03-29T08:48:27;21.80;88.50
34877;DHT22;21086;44.780;17.194;2024-03-29T08:50:53;21.80;87.70
34877;DHT22;21086;44.780;17.194;2024-03-29T08:53:19;21.80;86.90
34877;DHT22;21086;44.780;17.194;2024-03-29T08:55:47;21.80;87.20
34877;DHT22;21086;44.780;17.194;2024-03-29T08:58:17;21.90;86.90
34877;DHT22;21086;44.780;17.194;2024-03-29T09:00:56;21.80;85.70
34877;DHT22;21086;44.780;17.194;2024-03-29T09:03:23;21.80;83.90
34877;DHT22;21086;44.780;17.194;2024-03-29T09:05:49;21.80;83.90
34877;DHT22;21086;44.780;17.194;2024-03-29T09:08:16;21.80;83.70
34877;DHT22;21086;44.780;17.194;2024-03-29T09:10:43;21.90;84.00
34877;DHT22;21086;44.780;17.194;2024-03-29T09:13:09;21.80;83.50
34877;DHT22;21086;44.780;17.194;2024-03-29T09:15:37;21.90;83.60
34877;DHT22;21086;44.780;17.194;2024-03-29T09:18:03;22.00;84.50
34877;DHT22;21086;44.780;17.194;2024-03-29T09:20:36;22.00;83.30
34877;DHT22;21086;44.780;17.194;2024-03-29T09:23:03;22.10;83.10
34877;DHT22;21086;44.780;17.194;2024-03-29T09:25:30;22.20;83.20
34877;DHT22;21086;44.780;17.194;2024-03-29T09:27:57;22.30;82.70
34877;DHT22;21086;44.780;17.194;2024-03-29T09:30:23;22.30;83.30
34877;DHT22;21086;44.780;17.194;2024-03-29T09:32:49;22.40;83.40
34877;DHT22;21086;44.780;17.194;2024-03-29T09:35:17;22.60;83.90
34877;DHT22;21086;44.780;17.194;2024-03-29T09:37:44;22.60;82.60
34877;DHT22;21086;44.780;17.194;2024-03-29T09:40:11;22.80;83.50
34877;DHT22;21086;44.780;17.194;2024-03-29T09:42:39;22.80;82.10
34877;DHT22;21086;44.780;17.194;2024-03-29T09:45:05;22.60;80.80
34877;DHT22;21086;44.780;17.194;2024-03-29T09:47:32;22.60;80.60
34877;DHT22;21086;44.780;17.194;2024-03-29T09:50:04;22.70;81.00
34877;DHT22;21086;44.780;17.194;2024-03-29T09:52:33;22.80;80.00
34877;DHT22;21086;44.780;17.194;2024-03-29T09:55:00;22.80;79.80
34877;DHT22;21086;44.780;17.194;2024-03-29T09:57:27;22.80;79.40
34877;DHT22;21086;44.780;17.194;2024-03-29T09:59:57;23.00;80.20
34877;DHT22;21086;44.780;17.194;2024-03-29T10:02:27;23.20;80.10
34877;DHT22;21086;44.780;17.194;2024-03-29T10:04:55;23.10;79.60
34877;DHT22;21086;44.780;17.194;2024-03-29T10:07:23;23.10;78.10
34877;DHT22;21086;44.780;17.194;2024-03-29T10:09:50;23.20;78.50
34877;DHT22;21086;44.780;17.194;2024-03-29T10:12:16;23.10;76.60
34877;DHT22;21086;44.780;17.194;2024-03-29T10:14:47;22.80;74.60
34877;DHT22;21086;44.780;17.194;2024-03-29T10:17:21;22.90;75.00
34877;DHT22;21086;44.780;17.194;2024-03-29T10:19:47;22.80;89.60
34877;DHT22;21086;44.780;17.194;2024-03-29T10:22:13;22.80;74.00
34877;DHT22;21086;44.780;17.194;2024-03-29T10:24:40;22.80;73.50
34877;DHT22;21086;44.780;17.194;2024-03-29T10:27:06;22.90;73.90
34877;DHT22;21086;44.780;17.194;2024-03-29T10:29:33;22.90;72.70
34877;DHT22;21086;44.780;17.194;2024-03-29T10:32:00;22.70;72.40
34877;DHT22;21086;44.780;17.194;2024-03-29T10:34:27;22.70;70.90
34877;DHT22;21086;44.780;17.194;2024-03-29T10:37:01;22.60;70.80
34877;DHT22;21086;44.780;17.194;2024-03-29T10:39:29;22.50;70.00
34877;DHT22;21086;44.780;17.194;2024-03-29T10:41:56;22.60;70.60
34877;DHT22;21086;44.780;17.194;2024-03-29T10:44:23;22.80;71.80
34877;DHT22;21086;44.780;17.194;2024-03-29T10:46:50;22.80;69.90
34877;DHT22;21086;44.780;17.194;2024-03-29T10:49:18;22.70;69.10
34877;DHT22;21086;44.780;17.194;2024-03-29T10:51:44;22.60;68.90
34877;DHT22;21086;44.780;17.194;2024-03-29T10:54:11;22.60;68.90
34877;DHT22;21086;44.780;17.194;2024-03-29T10:56:38;22.30;66.60
34877;DHT22;21086;44.780;17.194;2024-03-29T11:01:38;22.30;67.80
34877;DHT22;21086;44.780;17.194;2024-03-29T11:04:13;22.30;67.20
34877;DHT22;21086;44.780;17.194;2024-03-29T11:06:43;22.20;66.60
34877;DHT22;21086;44.780;17.194;2024-03-29T11:09:13;22.20;66.50
34877;DHT22;21086;44.780;17.194;2024-03-29T11:11:44;22.10;66.20
34877;DHT22;21086;44.780;17.194;2024-03-29T11:14:18;22.30;68.00
34877;DHT22;21086;44.780;17.194;2024-03-29T11:16:46;22.30;66.90
34877;DHT22;21086;44.780;17.194;2024-03-29T11:19:14;22.50;68.00
34877;DHT22;21086;44.780;17.194;2024-03-29T11:21:41;22.50;68.60
34877;DHT22;21086;44.780;17.194;2024-03-29T11:24:09;22.60;69.10
34877;DHT22;21086;44.780;17.194;2024-03-29T11:26:36;22.70;68.70
34877;DHT22;21086;44.780;17.194;2024-03-29T11:29:02;22.60;68.20
34877;DHT22;21086;44.780;17.194;2024-03-29T11:31:29;22.90;69.50
34877;DHT22;21086;44.780;17.194;2024-03-29T11:33:58;23.00;69.40
34877;DHT22;21086;44.780;17.194;2024-03-29T11:36:27;23.10;69.60
34877;DHT22;21086;44.780;17.194;2024-03-29T11:38:57;23.40;70.50
34877;DHT22;21086;44.780;17.194;2024-03-29T11:41:25;23.30;68.90
34877;DHT22;21086;44.780;17.194;2024-03-29T11:43:56;23.30;68.30
34877;DHT22;21086;44.780;17.194;2024-03-29T11:46:23;23.50;68.60
34877;DHT22;21086;44.780;17.194;2024-03-29T11:48:50;23.50;69.10
34877;DHT22;21086;44.780;17.194;2024-03-29T11:51:19;23.80;70.10
34877;DHT22;21086;44.780;17.194;2024-03-29T11:53:48;24.00;69.30
34877;DHT22;21086;44.780;17.194;2024-03-29T11:56:16;24.30;69.80
34877;DHT22;21086;44.780;17.194;2024-03-29T11:58:42;24.70;70.50
34877;DHT22;21086;44.780;17.194;2024-03-29T12:01:08;24.90;70.40
34877;DHT22;21086;44.780;17.194;2024-03-29T12:03:42;25.20;70.50
34877;DHT22;21086;44.780;17.194;2024-03-29T12:06:09;25.60;70.60
34877;DHT22;21086;44.780;17.194;2024-03-29T12:08:38;26.00;70.70
34877;DHT22;21086;44.780;17.194;2024-03-29T12:11:04;26.20;69.40
34877;DHT22;21086;44.780;17.194;2024-03-29T12:13:31;26.80;71.00
34877;DHT22;21086;44.780;17.194;2024-03-29T12:15:58;26.70;68.00
34877;DHT22;21086;44.780;17.194;2024-03-29T12:18:25;27.10;67.70
34877;DHT22;21086;44.780;17.194;2024-03-29T12:20:52;28.60;72.30
34877;DHT22;21086;44.780;17.194;2024-03-29T12:23:19;29.70;73.70
34877;DHT22;21086;44.780;17.194;2024-03-29T12:25:47;30.60;73.10
34877;DHT22;21086;44.780;17.194;2024-03-29T12:28:14;31.80;74.90
34877;DHT22;21086;44.780;17.194;2024-03-29T12:30:42;31.50;67.60
34877;DHT22;21086;44.780;17.194;2024-03-29T12:33:12;30.90;59.80
34877;DHT22;21086;44.780;17.194;2024-03-29T12:35:49;30.50;56.20
34877;DHT22;21086;44.780;17.194;2024-03-29T12:38:17;30.00;53.20
34877;DHT22;21086;44.780;17.194;2024-03-29T12:40:44;29.40;50.60
34877;DHT22;21086;44.780;17.194;2024-03-29T12:43:20;29.10;48.30
34877;DHT22;21086;44.780;17.194;2024-03-29T12:45:49;28.70;46.00
34877;DHT22;21086;44.780;17.194;2024-03-29T12:48:20;28.30;44.40
34877;DHT22;21086;44.780;17.194;2024-03-29T12:50:49;27.40;40.70
34877;DHT22;21086;44.780;17.194;2024-03-29T12:53:16;26.40;37.70
34877;DHT22;21086;44.780;17.194;2024-03-29T12:55:46;25.90;37.00
34877;DHT22;21086;44.780;17.194;2024-03-29T12:58:13;25.40;45.60
34877;DHT22;21086;44.780;17.194;2024-03-29T13:00:40;24.80;34.50
34877;DHT22;21086;44.780;17.194;2024-03-29T13:03:07;24.30;33.90
34877;DHT22;21086;44.780;17.194;2024-03-29T13:05:35;24.20;34.90
34877;DHT22;21086;44.780;17.194;2024-03-29T13:08:07;24.20;35.50
34877;DHT22;21086;44.780;17.194;2024-03-29T13:10:36;24.10;36.00
34877;DHT22;21086;44.780;17.194;2024-03-29T13:13:02;24.20;47.20
34877;DHT22;21086;44.780;17.194;2024-03-29T13:15:31;24.30;38.40
34877;DHT22;21086;44.780;17.194;2024-03-29T13:17:57;24.50;39.70
34877;DHT22;21086;44.780;17.194;2024-03-29T13:20:24;24.40;39.10
34877;DHT22;21086;44.780;17.194;2024-03-29T13:22:51;24.20;38.50
34877;DHT22;21086;44.780;17.194;2024-03-29T13:25:20;24.20;38.90
34877;DHT22;21086;44.780;17.194;2024-03-29T13:27:53;24.30;39.60
34877;DHT22;21086;44.780;17.194;2024-03-29T13:30:27;24.70;41.30
34877;DHT22;21086;44.780;17.194;2024-03-29T13:32:53;25.20;42.70
34877;DHT22;21086;44.780;17.194;2024-03-29T13:35:20;25.90;44.40
34877;DHT22;21086;44.780;17.194;2024-03-29T13:37:50;25.90;43.50
34877;DHT22;21086;44.780;17.194;2024-03-29T13:40:18;25.90;43.40
34877;DHT22;21086;44.780;17.194;2024-03-29T13:42:45;26.10;43.20
34877;DHT22;21086;44.780;17.194;2024-03-29T13:45:11;26.50;44.20
34877;DHT22;21086;44.780;17.194;2024-03-29T13:47:38;26.50;43.00
34877;DHT22;21086;44.780;17.194;2024-03-29T13:50:08;26.60;43.70
34877;DHT22;21086;44.780;17.194;2024-03-29T13:52:35;26.80;43.30
34877;DHT22;21086;44.780;17.194;2024-03-29T13:55:02;26.80;42.80
34877;DHT22;21086;44.780;17.194;2024-03-29T13:57:31;26.90;42.70
34877;DHT22;21086;44.780;17.194;2024-03-29T14:00:01;27.10;42.80
34877;DHT22;21086;44.780;17.194;2024-03-29T14:02:28;27.80;44.20
34877;DHT22;21086;44.780;17.194;2024-03-29T14:04:54;29.80;48.80
34877;DHT22;21086;44.780;17.194;2024-03-29T14:07:21;30.60;48.60
34877;DHT22;21086;44.780;17.194;2024-03-29T14:09:50;30.20;45.50
34877;DHT22;21086;44.780;17.194;2024-03-29T14:12:17;30.70;45.20
34877;DHT22;21086;44.780;17.194;2024-03-29T14:14:44;32.00;47.60
34877;DHT22;21086;44.780;17.194;2024-03-29T14:17:14;32.70;46.70
34877;DHT22;21086;44.780;17.194;2024-03-29T14:19:40;34.00;48.40
34877;DHT22;21086;44.780;17.194;2024-03-29T14:22:07;33.20;42.10
34877;DHT22;21086;44.780;17.194;2024-03-29T14:24:34;31.90;36.30
34877;DHT22;21086;44.780;17.194;2024-03-29T14:27:05;31.80;34.80
34877;DHT22;21086;44.780;17.194;2024-03-29T14:29:32;31.40;32.00
34877;DHT22;21086;44.780;17.194;2024-03-29T14:31:58;30.60;29.20
34877;DHT22;21086;44.780;17.194;2024-03-29T14:34:25;30.70;29.00
34877;DHT22;21086;44.780;17.194;2024-03-29T14:36:51;30.30;27.60
34877;DHT22;21086;44.780;17.194;2024-03-29T14:39:18;30.20;26.70
34877;DHT22;21086;44.780;17.194;2024-03-29T14:41:47;30.10;26.50
34877;DHT22;21086;44.780;17.194;2024-03-29T14:44:16;30.80;27.60
34877;DHT22;21086;44.780;17.194;2024-03-29T14:46:41;30.90;27.00
34877;DHT22;21086;44.780;17.194;2024-03-29T14:49:07;30.40;25.30
34877;DHT22;21086;44.780;17.194;2024-03-29T14:51:38;30.10;24.30
34877;DHT22;21086;44.780;17.194;2024-03-29T14:54:06;29.60;23.00
34877;DHT22;21086;44.780;17.194;2024-03-29T14:56:33;28.50;20.20
34877;DHT22;21086;44.780;17.194;2024-03-29T14:59:06;27.60;18.80
34877;DHT22;21086;44.780;17.194;2024-03-29T15:01:35;27.50;19.30
34877;DHT22;21086;44.780;17.194;2024-03-29T15:04:01;27.50;20.20
34877;DHT22;21086;44.780;17.194;2024-03-29T15:06:28;27.20;19.20
34877;DHT22;21086;44.780;17.194;2024-03-29T15:08:56;26.80;18.90
34877;DHT22;21086;44.780;17.194;2024-03-29T15:11:24;26.90;19.70
34877;DHT22;21086;44.780;17.194;2024-03-29T15:13:50;27.10;20.80
34877;DHT22;21086;44.780;17.194;2024-03-29T15:16:16;27.50;21.90
34877;DHT22;21086;44.780;17.194;2024-03-29T15:18:43;28.60;24.60
34877;DHT22;21086;44.780;17.194;2024-03-29T15:21:09;29.80;27.20
34877;DHT22;21086;44.780;17.194;2024-03-29T15:23:36;31.40;29.80